Annette, Alaska
Current Conditions -  °F | °C
As of 3:22 PM on Saturday 22 Nov 2014 (Local Time) from PANT Reporting Station
Light Rain Light Rain  
Wind Chill: 42°   Ceiling: 5000
Heat Index: 46°   Visibility: 10mi
Dew Point: 43°   Wind: 8mph
Humidity: 89%   Direction: 180°S
Pressure: 29.52"   Gusts: 17mph
Location:  55.05°N, 131.6°W
Report Text: PANT 230022Z 18007G15KT 10SM -RA SCT025 BKN050 BKN070 OVC150 08/06 A2952 RMK AO2 P0004 T00780061
Loading
Personal Weather Stations






























Interactive Weather Map New forecast layout! Learn more

10-Day Weather Forecast

Advertisements
Track Severe Weather on mobile